sensor_id;sensor_type;location;lat;lon;timestamp;P1;durP1;ratioP1;P2;durP2;ratioP2
67528;SDS011;54366;51.980;5.856;2022-09-14T00:01:05;2.92;;;0.98;;
67528;SDS011;54366;51.980;5.856;2022-09-14T00:03:42;3.50;;;0.80;;
67528;SDS011;54366;51.980;5.856;2022-09-14T00:06:10;2.92;;;1.00;;
67528;SDS011;54366;51.980;5.856;2022-09-14T00:08:38;3.58;;;0.70;;
67528;SDS011;54366;51.980;5.856;2022-09-14T00:11:06;3.05;;;0.50;;
67528;SDS011;54366;51.980;5.856;2022-09-14T00:13:35;1.77;;;0.43;;
67528;SDS011;54366;51.980;5.856;2022-09-14T00:16:02;1.88;;;0.68;;
67528;SDS011;54366;51.980;5.856;2022-09-14T00:18:30;1.88;;;0.63;;
67528;SDS011;54366;51.980;5.856;2022-09-14T00:21:01;2.75;;;0.55;;
67528;SDS011;54366;51.980;5.856;2022-09-14T00:23:30;3.75;;;0.50;;
67528;SDS011;54366;51.980;5.856;2022-09-14T00:26:03;2.25;;;0.70;;
67528;SDS011;54366;51.980;5.856;2022-09-14T00:28:41;2.42;;;0.73;;
67528;SDS011;54366;51.980;5.856;2022-09-14T00:31:12;1.88;;;0.55;;
67528;SDS011;54366;51.980;5.856;2022-09-14T00:33:40;3.15;;;0.70;;
67528;SDS011;54366;51.980;5.856;2022-09-14T00:36:08;2.00;;;0.55;;
67528;SDS011;54366;51.980;5.856;2022-09-14T00:38:36;3.70;;;0.80;;
67528;SDS011;54366;51.980;5.856;2022-09-14T00:41:04;3.75;;;0.90;;
67528;SDS011;54366;51.980;5.856;2022-09-14T00:43:32;3.00;;;0.80;;
67528;SDS011;54366;51.980;5.856;2022-09-14T00:46:15;3.88;;;0.70;;
67528;SDS011;54366;51.980;5.856;2022-09-14T00:48:41;2.78;;;0.80;;
67528;SDS011;54366;51.980;5.856;2022-09-14T00:51:08;2.42;;;0.60;;
67528;SDS011;54366;51.980;5.856;2022-09-14T00:53:34;2.35;;;0.63;;
67528;SDS011;54366;51.980;5.856;2022-09-14T00:56:01;2.55;;;0.80;;
67528;SDS011;54366;51.980;5.856;2022-09-14T00:58:27;1.92;;;0.80;;
67528;SDS011;54366;51.980;5.856;2022-09-14T01:00:53;2.97;;;1.20;;
67528;SDS011;54366;51.980;5.856;2022-09-14T01:03:19;2.50;;;0.93;;
67528;SDS011;54366;51.980;5.856;2022-09-14T01:05:49;3.95;;;0.93;;
67528;SDS011;54366;51.980;5.856;2022-09-14T01:11:38;2.55;;;0.70;;
67528;SDS011;54366;51.980;5.856;2022-09-14T01:16:58;3.45;;;0.90;;
67528;SDS011;54366;51.980;5.856;2022-09-14T01:22:30;3.95;;;1.10;;
67528;SDS011;54366;51.980;5.856;2022-09-14T01:24:57;5.38;;;1.00;;
67528;SDS011;54366;51.980;5.856;2022-09-14T01:27:38;3.80;;;0.75;;
67528;SDS011;54366;51.980;5.856;2022-09-14T01:30:10;2.55;;;0.75;;
67528;SDS011;54366;51.980;5.856;2022-09-14T01:35:44;2.25;;;0.70;;
67528;SDS011;54366;51.980;5.856;2022-09-14T01:38:24;3.13;;;0.50;;
67528;SDS011;54366;51.980;5.856;2022-09-14T01:41:05;3.55;;;0.70;;
67528;SDS011;54366;51.980;5.856;2022-09-14T01:46:13;1.98;;;0.65;;
67528;SDS011;54366;51.980;5.856;2022-09-14T01:48:54;2.03;;;0.77;;
67528;SDS011;54366;51.980;5.856;2022-09-14T01:51:30;2.38;;;0.60;;
67528;SDS011;54366;51.980;5.856;2022-09-14T01:54:16;2.42;;;0.43;;
67528;SDS011;54366;51.980;5.856;2022-09-14T01:56:50;3.10;;;0.80;;
67528;SDS011;54366;51.980;5.856;2022-09-14T01:59:24;3.40;;;0.60;;
67528;SDS011;54366;51.980;5.856;2022-09-14T02:02:15;2.75;;;0.68;;
67528;SDS011;54366;51.980;5.856;2022-09-14T02:07:55;2.22;;;0.50;;
67528;SDS011;54366;51.980;5.856;2022-09-14T02:10:22;1.80;;;0.45;;
67528;SDS011;54366;51.980;5.856;2022-09-14T02:12:50;1.30;;;0.40;;
67528;SDS011;54366;51.980;5.856;2022-09-14T02:15:17;0.98;;;0.40;;
67528;SDS011;54366;51.980;5.856;2022-09-14T02:17:43;2.05;;;0.32;;
67528;SDS011;54366;51.980;5.856;2022-09-14T02:20:15;2.38;;;0.55;;
67528;SDS011;54366;51.980;5.856;2022-09-14T02:22:47;1.10;;;0.40;;
67528;SDS011;54366;51.980;5.856;2022-09-14T02:25:15;1.25;;;0.40;;
67528;SDS011;54366;51.980;5.856;2022-09-14T02:27:42;3.50;;;0.70;;
67528;SDS011;54366;51.980;5.856;2022-09-14T02:30:11;1.80;;;0.50;;
67528;SDS011;54366;51.980;5.856;2022-09-14T02:35:49;0.93;;;0.30;;
67528;SDS011;54366;51.980;5.856;2022-09-14T02:38:42;1.75;;;0.30;;
67528;SDS011;54366;51.980;5.856;2022-09-14T02:44:32;2.38;;;0.40;;
67528;SDS011;54366;51.980;5.856;2022-09-14T02:47:12;1.00;;;0.30;;
67528;SDS011;54366;51.980;5.856;2022-09-14T02:49:54;3.15;;;0.73;;
67528;SDS011;54366;51.980;5.856;2022-09-14T02:52:32;2.05;;;0.50;;
67528;SDS011;54366;51.980;5.856;2022-09-14T02:55:06;2.22;;;0.63;;
67528;SDS011;54366;51.980;5.856;2022-09-14T03:00:28;3.97;;;0.70;;
67528;SDS011;54366;51.980;5.856;2022-09-14T03:02:56;2.08;;;0.60;;
67528;SDS011;54366;51.980;5.856;2022-09-14T03:05:23;2.90;;;0.70;;
67528;SDS011;54366;51.980;5.856;2022-09-14T03:07:49;3.90;;;0.68;;
67528;SDS011;54366;51.980;5.856;2022-09-14T03:10:15;4.43;;;0.90;;
67528;SDS011;54366;51.980;5.856;2022-09-14T03:12:42;1.88;;;0.40;;
67528;SDS011;54366;51.980;5.856;2022-09-14T03:15:09;1.60;;;0.63;;
67528;SDS011;54366;51.980;5.856;2022-09-14T03:17:35;3.13;;;0.55;;
67528;SDS011;54366;51.980;5.856;2022-09-14T03:20:01;2.50;;;0.55;;
67528;SDS011;54366;51.980;5.856;2022-09-14T03:22:28;1.90;;;0.50;;
67528;SDS011;54366;51.980;5.856;2022-09-14T03:24:55;1.30;;;0.50;;
67528;SDS011;54366;51.980;5.856;2022-09-14T03:27:21;1.98;;;0.70;;
67528;SDS011;54366;51.980;5.856;2022-09-14T03:29:47;2.40;;;0.40;;
67528;SDS011;54366;51.980;5.856;2022-09-14T03:32:13;2.70;;;0.80;;
67528;SDS011;54366;51.980;5.856;2022-09-14T03:34:39;1.42;;;0.50;;
67528;SDS011;54366;51.980;5.856;2022-09-14T03:37:05;1.00;;;0.40;;
67528;SDS011;54366;51.980;5.856;2022-09-14T03:39:32;1.38;;;0.40;;
67528;SDS011;54366;51.980;5.856;2022-09-14T03:41:58;3.80;;;0.95;;
67528;SDS011;54366;51.980;5.856;2022-09-14T03:44:24;2.05;;;0.50;;
67528;SDS011;54366;51.980;5.856;2022-09-14T03:46:50;2.60;;;0.68;;
67528;SDS011;54366;51.980;5.856;2022-09-14T03:49:16;1.98;;;0.60;;
67528;SDS011;54366;51.980;5.856;2022-09-14T03:51:43;2.85;;;0.50;;
67528;SDS011;54366;51.980;5.856;2022-09-14T03:54:09;2.25;;;0.40;;
67528;SDS011;54366;51.980;5.856;2022-09-14T03:56:35;1.63;;;0.60;;
67528;SDS011;54366;51.980;5.856;2022-09-14T03:59:01;1.27;;;0.50;;
67528;SDS011;54366;51.980;5.856;2022-09-14T04:01:28;2.70;;;0.60;;
67528;SDS011;54366;51.980;5.856;2022-09-14T04:03:54;2.00;;;0.40;;
67528;SDS011;54366;51.980;5.856;2022-09-14T04:06:20;1.35;;;0.40;;
67528;SDS011;54366;51.980;5.856;2022-09-14T04:08:46;0.73;;;0.20;;
67528;SDS011;54366;51.980;5.856;2022-09-14T04:11:15;2.75;;;0.50;;
67528;SDS011;54366;51.980;5.856;2022-09-14T04:13:43;2.92;;;0.73;;
67528;SDS011;54366;51.980;5.856;2022-09-14T04:16:09;3.03;;;0.60;;
67528;SDS011;54366;51.980;5.856;2022-09-14T04:18:36;1.77;;;0.50;;
67528;SDS011;54366;51.980;5.856;2022-09-14T04:21:03;1.35;;;0.55;;
67528;SDS011;54366;51.980;5.856;2022-09-14T04:23:35;3.20;;;0.55;;
67528;SDS011;54366;51.980;5.856;2022-09-14T04:26:01;2.10;;;0.43;;
67528;SDS011;54366;51.980;5.856;2022-09-14T04:28:35;3.97;;;0.40;;
67528;SDS011;54366;51.980;5.856;2022-09-14T04:31:01;3.45;;;0.60;;
67528;SDS011;54366;51.980;5.856;2022-09-14T04:33:28;4.18;;;0.47;;
67528;SDS011;54366;51.980;5.856;2022-09-14T04:35:57;1.80;;;0.43;;
67528;SDS011;54366;51.980;5.856;2022-09-14T04:38:28;1.25;;;0.30;;
67528;SDS011;54366;51.980;5.856;2022-09-14T04:40:55;1.23;;;0.30;;
67528;SDS011;54366;51.980;5.856;2022-09-14T04:43:22;1.05;;;0.30;;
67528;SDS011;54366;51.980;5.856;2022-09-14T04:45:49;1.08;;;0.20;;
67528;SDS011;54366;51.980;5.856;2022-09-14T04:48:16;1.40;;;0.30;;
67528;SDS011;54366;51.980;5.856;2022-09-14T04:50:42;2.42;;;0.50;;
67528;SDS011;54366;51.980;5.856;2022-09-14T04:53:09;1.23;;;0.40;;
67528;SDS011;54366;51.980;5.856;2022-09-14T04:55:36;0.68;;;0.20;;
67528;SDS011;54366;51.980;5.856;2022-09-14T04:58:03;2.05;;;0.47;;
67528;SDS011;54366;51.980;5.856;2022-09-14T05:00:29;2.80;;;0.50;;
67528;SDS011;54366;51.980;5.856;2022-09-14T05:02:58;0.93;;;0.40;;
67528;SDS011;54366;51.980;5.856;2022-09-14T05:05:24;2.53;;;0.60;;
67528;SDS011;54366;51.980;5.856;2022-09-14T05:07:51;1.92;;;0.40;;
67528;SDS011;54366;51.980;5.856;2022-09-14T05:10:17;0.57;;;0.25;;
67528;SDS011;54366;51.980;5.856;2022-09-14T05:12:43;1.73;;;0.32;;
67528;SDS011;54366;51.980;5.856;2022-09-14T05:15:10;1.08;;;0.47;;
67528;SDS011;54366;51.980;5.856;2022-09-14T05:17:36;1.80;;;0.35;;
67528;SDS011;54366;51.980;5.856;2022-09-14T05:20:02;1.38;;;0.20;;
67528;SDS011;54366;51.980;5.856;2022-09-14T05:22:29;0.93;;;0.30;;
67528;SDS011;54366;51.980;5.856;2022-09-14T05:24:55;2.15;;;0.40;;
67528;SDS011;54366;51.980;5.856;2022-09-14T05:27:21;1.35;;;0.30;;
67528;SDS011;54366;51.980;5.856;2022-09-14T05:29:47;1.98;;;0.40;;
67528;SDS011;54366;51.980;5.856;2022-09-14T05:32:13;1.23;;;0.40;;
67528;SDS011;54366;51.980;5.856;2022-09-14T05:34:40;2.55;;;0.40;;
67528;SDS011;54366;51.980;5.856;2022-09-14T05:37:06;2.45;;;0.47;;
67528;SDS011;54366;51.980;5.856;2022-09-14T05:39:32;3.30;;;0.60;;
67528;SDS011;54366;51.980;5.856;2022-09-14T05:41:58;1.23;;;0.30;;
67528;SDS011;54366;51.980;5.856;2022-09-14T05:44:24;1.65;;;0.30;;
67528;SDS011;54366;51.980;5.856;2022-09-14T05:46:50;1.13;;;0.40;;
67528;SDS011;54366;51.980;5.856;2022-09-14T05:49:17;2.83;;;0.50;;
67528;SDS011;54366;51.980;5.856;2022-09-14T05:51:43;1.42;;;0.38;;
67528;SDS011;54366;51.980;5.856;2022-09-14T05:54:09;0.60;;;0.20;;
67528;SDS011;54366;51.980;5.856;2022-09-14T05:56:36;0.80;;;0.30;;
67528;SDS011;54366;51.980;5.856;2022-09-14T05:59:03;1.40;;;0.47;;
67528;SDS011;54366;51.980;5.856;2022-09-14T06:01:29;1.95;;;0.30;;
67528;SDS011;54366;51.980;5.856;2022-09-14T06:03:58;1.25;;;0.30;;
67528;SDS011;54366;51.980;5.856;2022-09-14T06:06:27;1.20;;;0.30;;
67528;SDS011;54366;51.980;5.856;2022-09-14T06:08:54;0.98;;;0.40;;
67528;SDS011;54366;51.980;5.856;2022-09-14T06:11:22;0.90;;;0.32;;
67528;SDS011;54366;51.980;5.856;2022-09-14T06:13:50;2.08;;;0.40;;
67528;SDS011;54366;51.980;5.856;2022-09-14T06:16:18;2.58;;;0.40;;
67528;SDS011;54366;51.980;5.856;2022-09-14T06:18:45;1.85;;;0.40;;
67528;SDS011;54366;51.980;5.856;2022-09-14T06:21:13;2.72;;;0.40;;
67528;SDS011;54366;51.980;5.856;2022-09-14T06:23:41;1.70;;;0.40;;
67528;SDS011;54366;51.980;5.856;2022-09-14T06:26:08;2.30;;;0.40;;
67528;SDS011;54366;51.980;5.856;2022-09-14T06:28:35;2.22;;;0.40;;
67528;SDS011;54366;51.980;5.856;2022-09-14T06:31:01;1.77;;;0.35;;
67528;SDS011;54366;51.980;5.856;2022-09-14T06:33:32;2.50;;;0.50;;
67528;SDS011;54366;51.980;5.856;2022-09-14T06:36:00;0.65;;;0.30;;
67528;SDS011;54366;51.980;5.856;2022-09-14T06:38:27;3.25;;;0.40;;
67528;SDS011;54366;51.980;5.856;2022-09-14T06:40:54;1.48;;;0.40;;
67528;SDS011;54366;51.980;5.856;2022-09-14T06:43:23;1.13;;;0.40;;
67528;SDS011;54366;51.980;5.856;2022-09-14T06:45:54;3.38;;;0.57;;
67528;SDS011;54366;51.980;5.856;2022-09-14T06:48:21;1.10;;;0.25;;
67528;SDS011;54366;51.980;5.856;2022-09-14T06:50:48;1.50;;;0.30;;
67528;SDS011;54366;51.980;5.856;2022-09-14T06:53:14;2.95;;;0.40;;
67528;SDS011;54366;51.980;5.856;2022-09-14T06:55:40;1.67;;;0.47;;
67528;SDS011;54366;51.980;5.856;2022-09-14T06:58:07;3.70;;;0.50;;
67528;SDS011;54366;51.980;5.856;2022-09-14T07:00:34;1.02;;;0.40;;
67528;SDS011;54366;51.980;5.856;2022-09-14T07:03:01;1.88;;;0.30;;
67528;SDS011;54366;51.980;5.856;2022-09-14T07:05:27;0.90;;;0.30;;
67528;SDS011;54366;51.980;5.856;2022-09-14T07:07:55;1.45;;;0.50;;
67528;SDS011;54366;51.980;5.856;2022-09-14T07:10:22;1.52;;;0.38;;
67528;SDS011;54366;51.980;5.856;2022-09-14T07:12:53;2.00;;;0.63;;
67528;SDS011;54366;51.980;5.856;2022-09-14T07:15:20;1.50;;;0.50;;
67528;SDS011;54366;51.980;5.856;2022-09-14T07:17:46;3.20;;;0.60;;
67528;SDS011;54366;51.980;5.856;2022-09-14T07:20:12;1.33;;;0.30;;
67528;SDS011;54366;51.980;5.856;2022-09-14T07:22:40;1.70;;;0.30;;
67528;SDS011;54366;51.980;5.856;2022-09-14T07:25:07;3.22;;;0.60;;
67528;SDS011;54366;51.980;5.856;2022-09-14T07:27:34;4.50;;;0.80;;
67528;SDS011;54366;51.980;5.856;2022-09-14T07:30:03;3.45;;;0.60;;
67528;SDS011;54366;51.980;5.856;2022-09-14T07:32:31;2.08;;;0.40;;
67528;SDS011;54366;51.980;5.856;2022-09-14T07:34:57;1.27;;;0.43;;
67528;SDS011;54366;51.980;5.856;2022-09-14T07:37:23;1.08;;;0.20;;
67528;SDS011;54366;51.980;5.856;2022-09-14T07:39:49;1.27;;;0.50;;
67528;SDS011;54366;51.980;5.856;2022-09-14T07:42:16;2.00;;;0.50;;
67528;SDS011;54366;51.980;5.856;2022-09-14T07:44:42;1.33;;;0.40;;
67528;SDS011;54366;51.980;5.856;2022-09-14T07:47:08;1.45;;;0.40;;
67528;SDS011;54366;51.980;5.856;2022-09-14T07:49:34;3.05;;;0.50;;
67528;SDS011;54366;51.980;5.856;2022-09-14T07:52:01;1.20;;;0.50;;
67528;SDS011;54366;51.980;5.856;2022-09-14T07:54:27;1.45;;;0.40;;
67528;SDS011;54366;51.980;5.856;2022-09-14T07:56:53;1.20;;;0.30;;
67528;SDS011;54366;51.980;5.856;2022-09-14T07:59:20;1.92;;;0.47;;
67528;SDS011;54366;51.980;5.856;2022-09-14T08:01:46;2.03;;;0.40;;
67528;SDS011;54366;51.980;5.856;2022-09-14T08:04:13;1.20;;;0.30;;
67528;SDS011;54366;51.980;5.856;2022-09-14T08:06:39;2.17;;;0.50;;
67528;SDS011;54366;51.980;5.856;2022-09-14T08:09:06;1.33;;;0.45;;
67528;SDS011;54366;51.980;5.856;2022-09-14T08:11:35;1.65;;;0.47;;
67528;SDS011;54366;51.980;5.856;2022-09-14T08:14:06;1.25;;;0.28;;
67528;SDS011;54366;51.980;5.856;2022-09-14T08:16:38;0.95;;;0.28;;
67528;SDS011;54366;51.980;5.856;2022-09-14T08:19:05;1.77;;;0.30;;
67528;SDS011;54366;51.980;5.856;2022-09-14T08:21:36;1.85;;;0.40;;
67528;SDS011;54366;51.980;5.856;2022-09-14T08:24:03;2.03;;;0.40;;
67528;SDS011;54366;51.980;5.856;2022-09-14T08:26:31;1.48;;;0.32;;
67528;SDS011;54366;51.980;5.856;2022-09-14T08:29:00;1.48;;;0.52;;
67528;SDS011;54366;51.980;5.856;2022-09-14T08:31:29;2.42;;;0.57;;
67528;SDS011;54366;51.980;5.856;2022-09-14T08:33:57;2.22;;;0.47;;
67528;SDS011;54366;51.980;5.856;2022-09-14T08:36:25;1.95;;;0.50;;
67528;SDS011;54366;51.980;5.856;2022-09-14T08:38:54;2.88;;;0.60;;
67528;SDS011;54366;51.980;5.856;2022-09-14T08:41:32;1.88;;;0.50;;
67528;SDS011;54366;51.980;5.856;2022-09-14T08:44:05;2.15;;;0.50;;
67528;SDS011;54366;51.980;5.856;2022-09-14T08:46:43;2.55;;;0.50;;
67528;SDS011;54366;51.980;5.856;2022-09-14T08:52:11;3.13;;;0.55;;
67528;SDS011;54366;51.980;5.856;2022-09-14T08:54:48;1.25;;;0.30;;
67528;SDS011;54366;51.980;5.856;2022-09-14T08:57:41;1.75;;;0.30;;
67528;SDS011;54366;51.980;5.856;2022-09-14T09:00:13;0.65;;;0.20;;
67528;SDS011;54366;51.980;5.856;2022-09-14T09:02:55;2.85;;;0.50;;
67528;SDS011;54366;51.980;5.856;2022-09-14T09:06:03;1.20;;;0.45;;
67528;SDS011;54366;51.980;5.856;2022-09-14T09:08:47;1.80;;;0.30;;
67528;SDS011;54366;51.980;5.856;2022-09-14T09:11:18;1.70;;;0.40;;
67528;SDS011;54366;51.980;5.856;2022-09-14T09:13:47;2.10;;;0.30;;
67528;SDS011;54366;51.980;5.856;2022-09-14T09:16:17;1.75;;;0.50;;
67528;SDS011;54366;51.980;5.856;2022-09-14T09:18:56;2.08;;;0.55;;
67528;SDS011;54366;51.980;5.856;2022-09-14T09:21:28;2.05;;;0.50;;
67528;SDS011;54366;51.980;5.856;2022-09-14T09:24:01;2.97;;;0.45;;
67528;SDS011;54366;51.980;5.856;2022-09-14T09:26:41;1.17;;;0.30;;
67528;SDS011;54366;51.980;5.856;2022-09-14T09:29:08;2.65;;;0.20;;
67528;SDS011;54366;51.980;5.856;2022-09-14T09:31:54;1.80;;;0.40;;
67528;SDS011;54366;51.980;5.856;2022-09-14T09:34:42;2.60;;;0.45;;
67528;SDS011;54366;51.980;5.856;2022-09-14T09:37:28;2.20;;;0.40;;
67528;SDS011;54366;51.980;5.856;2022-09-14T09:40:00;1.30;;;0.20;;
67528;SDS011;54366;51.980;5.856;2022-09-14T09:42:27;1.98;;;0.30;;
67528;SDS011;54366;51.980;5.856;2022-09-14T09:44:58;2.50;;;0.30;;
67528;SDS011;54366;51.980;5.856;2022-09-14T09:47:34;2.53;;;0.47;;
67528;SDS011;54366;51.980;5.856;2022-09-14T09:50:15;3.28;;;0.50;;
67528;SDS011;54366;51.980;5.856;2022-09-14T09:52:53;0.90;;;0.35;;
67528;SDS011;54366;51.980;5.856;2022-09-14T09:55:23;2.30;;;0.32;;
67528;SDS011;54366;51.980;5.856;2022-09-14T09:57:55;1.45;;;0.50;;
67528;SDS011;54366;51.980;5.856;2022-09-14T10:00:25;1.02;;;0.30;;
67528;SDS011;54366;51.980;5.856;2022-09-14T10:02:54;1.20;;;0.40;;
67528;SDS011;54366;51.980;5.856;2022-09-14T10:05:22;1.35;;;0.50;;
67528;SDS011;54366;51.980;5.856;2022-09-14T10:08:03;1.30;;;0.60;;
67528;SDS011;54366;51.980;5.856;2022-09-14T10:13:00;1.98;;;0.40;;
67528;SDS011;54366;51.980;5.856;2022-09-14T10:15:29;2.00;;;0.40;;
67528;SDS011;54366;51.980;5.856;2022-09-14T10:20:42;2.58;;;0.75;;
67528;SDS011;54366;51.980;5.856;2022-09-14T10:23:31;3.60;;;1.05;;
67528;SDS011;54366;51.980;5.856;2022-09-14T10:28:39;3.10;;;0.50;;
67528;SDS011;54366;51.980;5.856;2022-09-14T10:33:39;2.30;;;0.75;;
67528;SDS011;54366;51.980;5.856;2022-09-14T10:36:12;4.32;;;0.93;;
67528;SDS011;54366;51.980;5.856;2022-09-14T10:41:28;3.55;;;1.55;;
67528;SDS011;54366;51.980;5.856;2022-09-14T10:47:09;3.38;;;1.08;;
67528;SDS011;54366;51.980;5.856;2022-09-14T10:55:34;3.15;;;1.13;;
67528;SDS011;54366;51.980;5.856;2022-09-14T11:04:16;3.85;;;1.73;;
67528;SDS011;54366;51.980;5.856;2022-09-14T11:06:51;5.50;;;1.27;;
67528;SDS011;54366;51.980;5.856;2022-09-14T11:15:05;2.90;;;1.35;;
67528;SDS011;54366;51.980;5.856;2022-09-14T11:20:33;1.88;;;1.30;;
67528;SDS011;54366;51.980;5.856;2022-09-14T11:23:29;3.15;;;1.52;;
67528;SDS011;54366;51.980;5.856;2022-09-14T11:26:09;3.55;;;1.70;;
67528;SDS011;54366;51.980;5.856;2022-09-14T11:28:37;3.15;;;1.45;;
67528;SDS011;54366;51.980;5.856;2022-09-14T11:33:54;1.90;;;1.58;;
67528;SDS011;54366;51.980;5.856;2022-09-14T11:36:24;4.50;;;1.88;;
67528;SDS011;54366;51.980;5.856;2022-09-14T11:39:00;3.63;;;1.98;;
67528;SDS011;54366;51.980;5.856;2022-09-14T11:41:34;9.88;;;7.80;;
67528;SDS011;54366;51.980;5.856;2022-09-14T11:44:22;5.72;;;3.38;;
67528;SDS011;54366;51.980;5.856;2022-09-14T11:47:03;2.60;;;2.30;;
67528;SDS011;54366;51.980;5.856;2022-09-14T11:49:52;2.88;;;1.88;;
67528;SDS011;54366;51.980;5.856;2022-09-14T11:52:25;2.72;;;1.90;;
67528;SDS011;54366;51.980;5.856;2022-09-14T11:54:52;2.33;;;1.60;;
67528;SDS011;54366;51.980;5.856;2022-09-14T11:57:21;4.00;;;1.70;;
67528;SDS011;54366;51.980;5.856;2022-09-14T11:59:51;3.08;;;1.40;;
67528;SDS011;54366;51.980;5.856;2022-09-14T12:12:44;2.63;;;1.52;;
67528;SDS011;54366;51.980;5.856;2022-09-14T12:17:51;4.35;;;2.33;;
67528;SDS011;54366;51.980;5.856;2022-09-14T13:05:40;2.97;;;1.48;;
67528;SDS011;54366;51.980;5.856;2022-09-14T13:08:08;2.15;;;1.13;;
67528;SDS011;54366;51.980;5.856;2022-09-14T13:10:37;4.45;;;2.22;;
67528;SDS011;54366;51.980;5.856;2022-09-14T13:13:14;5.72;;;2.78;;
67528;SDS011;54366;51.980;5.856;2022-09-14T13:15:52;5.00;;;1.83;;
67528;SDS011;54366;51.980;5.856;2022-09-14T13:18:28;3.53;;;1.70;;
67528;SDS011;54366;51.980;5.856;2022-09-14T13:21:11;2.78;;;1.52;;
67528;SDS011;54366;51.980;5.856;2022-09-14T13:26:14;2.88;;;1.80;;
67528;SDS011;54366;51.980;5.856;2022-09-14T13:28:44;4.55;;;1.60;;
67528;SDS011;54366;51.980;5.856;2022-09-14T13:31:15;3.55;;;1.45;;
67528;SDS011;54366;51.980;5.856;2022-09-14T13:33:46;3.17;;;1.48;;
67528;SDS011;54366;51.980;5.856;2022-09-14T13:36:15;2.97;;;1.38;;
67528;SDS011;54366;51.980;5.856;2022-09-14T13:38:44;3.70;;;1.50;;
67528;SDS011;54366;51.980;5.856;2022-09-14T13:41:13;3.38;;;1.90;;
67528;SDS011;54366;51.980;5.856;2022-09-14T13:43:41;2.85;;;1.13;;
67528;SDS011;54366;51.980;5.856;2022-09-14T13:46:08;2.25;;;0.95;;
67528;SDS011;54366;51.980;5.856;2022-09-14T13:48:36;1.52;;;0.63;;
67528;SDS011;54366;51.980;5.856;2022-09-14T13:51:05;2.92;;;1.25;;
67528;SDS011;54366;51.980;5.856;2022-09-14T13:53:38;2.00;;;0.80;;
67528;SDS011;54366;51.980;5.856;2022-09-14T14:01:50;2.83;;;0.95;;
67528;SDS011;54366;51.980;5.856;2022-09-14T14:06:57;3.75;;;0.90;;
67528;SDS011;54366;51.980;5.856;2022-09-14T14:14:57;2.63;;;0.52;;
67528;SDS011;54366;51.980;5.856;2022-09-14T14:17:30;2.03;;;0.50;;
67528;SDS011;54366;51.980;5.856;2022-09-14T14:20:21;1.45;;;0.40;;
67528;SDS011;54366;51.980;5.856;2022-09-14T14:28:03;2.15;;;0.47;;
67528;SDS011;54366;51.980;5.856;2022-09-14T14:30:38;1.65;;;0.38;;
67528;SDS011;54366;51.980;5.856;2022-09-14T14:33:10;1.30;;;0.40;;
67528;SDS011;54366;51.980;5.856;2022-09-14T14:35:38;0.90;;;0.32;;
67528;SDS011;54366;51.980;5.856;2022-09-14T14:38:04;2.10;;;0.40;;
67528;SDS011;54366;51.980;5.856;2022-09-14T14:40:30;3.95;;;0.68;;
67528;SDS011;54366;51.980;5.856;2022-09-14T14:42:58;2.03;;;0.70;;
67528;SDS011;54366;51.980;5.856;2022-09-14T14:45:28;2.00;;;0.57;;
67528;SDS011;54366;51.980;5.856;2022-09-14T14:47:56;1.95;;;0.40;;
67528;SDS011;54366;51.980;5.856;2022-09-14T14:50:24;2.05;;;0.40;;
67528;SDS011;54366;51.980;5.856;2022-09-14T14:52:58;2.08;;;0.57;;
67528;SDS011;54366;51.980;5.856;2022-09-14T14:55:26;2.80;;;0.65;;
67528;SDS011;54366;51.980;5.856;2022-09-14T14:57:59;1.98;;;0.40;;
67528;SDS011;54366;51.980;5.856;2022-09-14T15:00:28;1.85;;;0.55;;
67528;SDS011;54366;51.980;5.856;2022-09-14T15:02:57;2.08;;;0.45;;
67528;SDS011;54366;51.980;5.856;2022-09-14T15:05:23;3.25;;;0.30;;
67528;SDS011;54366;51.980;5.856;2022-09-14T15:07:50;1.02;;;0.30;;
67528;SDS011;54366;51.980;5.856;2022-09-14T15:10:18;2.15;;;0.47;;
67528;SDS011;54366;51.980;5.856;2022-09-14T15:12:45;3.05;;;0.80;;
67528;SDS011;54366;51.980;5.856;2022-09-14T15:15:16;2.25;;;0.57;;
67528;SDS011;54366;51.980;5.856;2022-09-14T15:17:43;1.95;;;0.40;;
67528;SDS011;54366;51.980;5.856;2022-09-14T15:20:10;1.77;;;0.40;;
67528;SDS011;54366;51.980;5.856;2022-09-14T15:22:37;2.58;;;0.63;;
67528;SDS011;54366;51.980;5.856;2022-09-14T15:25:07;1.25;;;0.40;;
67528;SDS011;54366;51.980;5.856;2022-09-14T15:27:34;1.45;;;0.47;;
67528;SDS011;54366;51.980;5.856;2022-09-14T15:30:00;1.48;;;0.38;;
67528;SDS011;54366;51.980;5.856;2022-09-14T15:32:28;1.75;;;0.30;;
67528;SDS011;54366;51.980;5.856;2022-09-14T15:34:54;1.20;;;0.40;;
67528;SDS011;54366;51.980;5.856;2022-09-14T15:37:20;3.35;;;0.60;;
67528;SDS011;54366;51.980;5.856;2022-09-14T15:39:46;2.05;;;0.60;;
67528;SDS011;54366;51.980;5.856;2022-09-14T15:42:15;1.70;;;0.55;;
67528;SDS011;54366;51.980;5.856;2022-09-14T15:44:42;2.20;;;0.60;;
67528;SDS011;54366;51.980;5.856;2022-09-14T15:47:10;2.20;;;0.73;;
67528;SDS011;54366;51.980;5.856;2022-09-14T15:49:37;1.80;;;0.60;;
67528;SDS011;54366;51.980;5.856;2022-09-14T15:52:03;2.42;;;0.50;;
67528;SDS011;54366;51.980;5.856;2022-09-14T15:54:30;2.58;;;0.43;;
67528;SDS011;54366;51.980;5.856;2022-09-14T15:56:58;1.00;;;0.50;;
67528;SDS011;54366;51.980;5.856;2022-09-14T15:59:25;0.80;;;0.38;;
67528;SDS011;54366;51.980;5.856;2022-09-14T16:01:52;1.08;;;0.35;;
67528;SDS011;54366;51.980;5.856;2022-09-14T16:04:19;1.92;;;0.50;;
67528;SDS011;54366;51.980;5.856;2022-09-14T16:06:46;2.03;;;0.40;;
67528;SDS011;54366;51.980;5.856;2022-09-14T16:09:13;2.58;;;0.55;;
67528;SDS011;54366;51.980;5.856;2022-09-14T16:11:40;1.63;;;0.40;;
67528;SDS011;54366;51.980;5.856;2022-09-14T16:14:07;1.67;;;0.45;;
67528;SDS011;54366;51.980;5.856;2022-09-14T16:16:35;2.67;;;0.70;;
67528;SDS011;54366;51.980;5.856;2022-09-14T16:19:05;3.58;;;0.35;;
67528;SDS011;54366;51.980;5.856;2022-09-14T16:21:33;2.88;;;0.52;;
67528;SDS011;54366;51.980;5.856;2022-09-14T16:24:01;1.83;;;0.60;;
67528;SDS011;54366;51.980;5.856;2022-09-14T16:26:31;2.55;;;0.50;;
67528;SDS011;54366;51.980;5.856;2022-09-14T16:29:00;3.47;;;0.50;;
67528;SDS011;54366;51.980;5.856;2022-09-14T16:31:28;2.28;;;0.60;;
67528;SDS011;54366;51.980;5.856;2022-09-14T16:34:00;2.70;;;0.70;;
67528;SDS011;54366;51.980;5.856;2022-09-14T16:36:29;1.70;;;0.40;;
67528;SDS011;54366;51.980;5.856;2022-09-14T16:38:58;4.15;;;0.68;;
67528;SDS011;54366;51.980;5.856;2022-09-14T16:41:26;2.95;;;0.65;;
67528;SDS011;54366;51.980;5.856;2022-09-14T16:43:54;2.83;;;0.60;;
67528;SDS011;54366;51.980;5.856;2022-09-14T16:46:21;2.47;;;0.93;;
67528;SDS011;54366;51.980;5.856;2022-09-14T16:48:49;3.40;;;1.35;;
67528;SDS011;54366;51.980;5.856;2022-09-14T16:51:16;4.75;;;1.10;;
67528;SDS011;54366;51.980;5.856;2022-09-14T16:53:45;2.78;;;1.20;;
67528;SDS011;54366;51.980;5.856;2022-09-14T16:58:42;3.78;;;1.17;;
67528;SDS011;54366;51.980;5.856;2022-09-14T17:01:13;2.28;;;0.90;;
67528;SDS011;54366;51.980;5.856;2022-09-14T17:03:41;2.97;;;0.95;;
67528;SDS011;54366;51.980;5.856;2022-09-14T17:06:10;4.57;;;1.52;;
67528;SDS011;54366;51.980;5.856;2022-09-14T17:08:39;3.33;;;1.08;;
67528;SDS011;54366;51.980;5.856;2022-09-14T17:11:05;3.10;;;1.00;;
67528;SDS011;54366;51.980;5.856;2022-09-14T17:13:32;3.72;;;1.40;;
67528;SDS011;54366;51.980;5.856;2022-09-14T17:16:03;2.53;;;1.02;;
67528;SDS011;54366;51.980;5.856;2022-09-14T17:18:32;3.47;;;1.17;;
67528;SDS011;54366;51.980;5.856;2022-09-14T17:21:03;3.15;;;1.10;;
67528;SDS011;54366;51.980;5.856;2022-09-14T17:23:32;4.68;;;1.63;;
67528;SDS011;54366;51.980;5.856;2022-09-14T17:25:58;4.78;;;1.38;;
67528;SDS011;54366;51.980;5.856;2022-09-14T17:28:26;2.70;;;1.40;;
67528;SDS011;54366;51.980;5.856;2022-09-14T17:30:54;3.08;;;1.38;;
67528;SDS011;54366;51.980;5.856;2022-09-14T17:33:22;3.03;;;1.60;;
67528;SDS011;54366;51.980;5.856;2022-09-14T17:35:49;3.33;;;1.80;;